createdAt,value
2023-03-04T00:00:17.363Z,91.81
2023-03-04T00:01:17.363Z,91.71
2023-03-04T00:02:17.623Z,91.56
2023-03-04T00:03:17.380Z,91.50
2023-03-04T00:04:17.355Z,91.46
2023-03-04T00:05:17.362Z,91.56
2023-03-04T00:06:17.303Z,91.50
2023-03-04T00:07:17.294Z,91.50
2023-03-04T00:08:17.274Z,91.50
2023-03-04T00:09:17.278Z,91.39
2023-03-04T00:10:17.265Z,91.39
2023-03-04T00:11:17.253Z,91.46
2023-03-04T00:12:17.247Z,91.56
2023-03-04T00:13:17.247Z,91.46
2023-03-04T00:14:17.229Z,91.46
2023-03-04T00:15:17.228Z,91.46
2023-03-04T00:16:17.240Z,91.56
2023-03-04T00:17:17.196Z,91.56
2023-03-04T00:18:17.175Z,91.66
2023-03-04T00:19:17.177Z,91.77
2023-03-04T00:20:17.168Z,91.77
2023-03-04T00:21:17.159Z,91.66
2023-03-04T00:22:17.140Z,91.66
2023-03-04T00:23:17.136Z,91.77
2023-03-04T00:24:17.142Z,91.77
2023-03-04T00:25:17.114Z,91.77
2023-03-04T00:26:17.095Z,91.77
2023-03-04T00:27:17.142Z,91.66
2023-03-04T00:28:17.139Z,91.77
2023-03-04T00:29:17.082Z,91.77
2023-03-04T00:30:17.053Z,91.66
2023-03-04T00:31:17.086Z,91.62
2023-03-04T00:32:17.059Z,91.52
2023-03-04T00:33:17.020Z,91.41
2023-03-04T00:34:17.014Z,91.41
2023-03-04T00:35:17.017Z,91.31
2023-03-04T00:36:16.977Z,91.20
2023-03-04T00:37:16.989Z,91.20
2023-03-04T00:38:16.966Z,91.20
2023-03-04T00:39:16.953Z,91.31
2023-03-04T00:40:17.054Z,91.31
2023-03-04T00:41:16.940Z,91.41
2023-03-04T00:42:16.927Z,91.41
2023-03-04T00:43:16.928Z,91.41
2023-03-04T00:44:16.909Z,91.31
2023-03-04T00:45:16.899Z,91.31
2023-03-04T00:46:16.944Z,91.41
2023-03-04T00:47:16.866Z,91.41
2023-03-04T00:48:16.856Z,91.31
2023-03-04T00:49:16.881Z,91.31
2023-03-04T00:50:16.859Z,91.31
2023-03-04T00:51:16.820Z,91.31
2023-03-04T00:52:16.816Z,91.31
2023-03-04T00:53:16.797Z,91.31
2023-03-04T00:54:16.787Z,91.31
2023-03-04T00:55:16.811Z,91.31
2023-03-04T00:56:16.795Z,91.31
2023-03-04T00:57:16.759Z,91.31
2023-03-04T00:58:16.767Z,91.31
2023-03-04T00:59:16.738Z,91.31
2023-03-04T01:00:16.742Z,91.20
2023-03-04T01:01:16.756Z,91.20
2023-03-04T01:02:16.753Z,91.31
2023-03-04T01:03:16.698Z,91.31
2023-03-04T01:04:16.686Z,91.52
2023-03-04T01:05:16.703Z,91.52
2023-03-04T01:06:16.673Z,91.52
2023-03-04T01:07:16.664Z,91.52
2023-03-04T01:08:16.669Z,91.62
2023-03-04T01:09:16.624Z,91.72
2023-03-04T01:10:16.644Z,91.83
2023-03-04T01:11:16.605Z,91.83
2023-03-04T01:12:16.595Z,91.72
2023-03-04T01:13:16.596Z,91.72
2023-03-04T01:14:16.578Z,91.52
2023-03-04T01:15:16.587Z,91.52
2023-03-04T01:16:16.778Z,91.68
2023-03-04T01:17:16.548Z,91.89
2023-03-04T01:18:16.573Z,91.89
2023-03-04T01:19:16.528Z,91.89
2023-03-04T01:20:16.528Z,91.78
2023-03-04T01:21:16.503Z,91.89
2023-03-04T01:22:16.503Z,92.00
2023-03-04T01:23:16.488Z,91.89
2023-03-04T01:24:16.519Z,91.89
2023-03-04T01:25:16.622Z,91.89
2023-03-04T01:26:16.457Z,92.00
2023-03-04T01:27:16.440Z,91.89
2023-03-04T01:28:16.443Z,91.78
2023-03-04T01:29:16.426Z,91.78
2023-03-04T01:30:16.415Z,91.68
2023-03-04T01:31:16.430Z,91.89
2023-03-04T01:32:16.441Z,91.78
2023-03-04T01:33:16.384Z,92.10
2023-03-04T01:34:16.366Z,92.10
2023-03-04T01:35:16.367Z,92.00
2023-03-04T01:36:16.355Z,91.89
2023-03-04T01:37:16.328Z,91.89
2023-03-04T01:38:16.328Z,91.89
2023-03-04T01:39:16.317Z,91.89
2023-03-04T01:40:16.332Z,91.78
2023-03-04T01:41:16.306Z,91.78
2023-03-04T01:42:16.295Z,91.78
2023-03-04T01:43:16.289Z,91.89
2023-03-04T01:44:16.258Z,92.00
2023-03-04T01:45:16.262Z,92.00
2023-03-04T01:46:16.366Z,92.10
2023-03-04T01:47:16.230Z,92.10
2023-03-04T01:48:16.227Z,92.10
2023-03-04T01:49:16.237Z,92.10
2023-03-04T01:50:16.229Z,92.10
2023-03-04T01:51:16.199Z,92.00
2023-03-04T01:52:16.190Z,91.89
2023-03-04T01:53:16.192Z,92.00
2023-03-04T01:54:16.241Z,91.89
2023-03-04T01:55:16.164Z,91.89
2023-03-04T01:56:16.130Z,91.78
2023-03-04T01:57:16.121Z,91.78
2023-03-04T01:58:16.140Z,91.68
2023-03-04T01:59:16.114Z,91.68
2023-03-04T02:00:16.111Z,91.78
2023-03-04T02:01:16.150Z,91.89
2023-03-04T02:02:16.081Z,91.89
2023-03-04T02:03:16.064Z,92.00
2023-03-04T02:04:16.074Z,92.00
2023-03-04T02:05:16.071Z,92.00
2023-03-04T02:06:16.040Z,92.10
2023-03-04T02:07:16.045Z,92.10
2023-03-04T02:08:16.038Z,92.06
2023-03-04T02:09:15.994Z,91.96
2023-03-04T02:10:15.995Z,91.85
2023-03-04T02:11:15.982Z,91.85
2023-03-04T02:12:15.972Z,91.75
2023-03-04T02:13:15.978Z,91.75
2023-03-04T02:14:15.963Z,91.53
2023-03-04T02:15:15.957Z,91.43
2023-03-04T02:16:16.001Z,91.43
2023-03-04T02:17:15.921Z,91.43
2023-03-04T02:18:15.949Z,91.53
2023-03-04T02:19:15.911Z,91.53
2023-03-04T02:20:15.882Z,91.43
2023-03-04T02:21:15.874Z,91.43
2023-03-04T02:22:15.882Z,91.33
2023-03-04T02:23:15.916Z,91.22
2023-03-04T02:24:15.834Z,91.18
2023-03-04T02:25:15.843Z,91.08
2023-03-04T02:26:15.829Z,91.08
2023-03-04T02:27:15.802Z,91.08
2023-03-04T02:28:15.793Z,91.08
2023-03-04T02:29:15.794Z,91.08
2023-03-04T02:30:15.834Z,90.97
2023-03-04T02:31:15.802Z,90.97
2023-03-04T02:32:15.802Z,90.97
2023-03-04T02:33:15.750Z,90.97
2023-03-04T02:34:15.763Z,90.97
2023-03-04T02:35:15.746Z,91.08
2023-03-04T02:36:15.717Z,90.97
2023-03-04T02:37:15.699Z,90.97
2023-03-04T02:38:15.693Z,90.97
2023-03-04T02:39:15.691Z,90.97
2023-03-04T02:40:15.688Z,90.97
2023-03-04T02:41:15.656Z,90.97
2023-03-04T02:42:15.687Z,90.97
2023-03-04T02:43:15.639Z,90.97
2023-03-04T02:44:15.707Z,90.77
2023-03-04T02:45:15.607Z,90.66
2023-03-04T02:46:15.637Z,90.66
2023-03-04T02:47:15.587Z,90.66
2023-03-04T02:48:15.587Z,90.66
2023-03-04T02:49:15.609Z,90.56
2023-03-04T02:50:15.572Z,90.66
2023-03-04T02:51:15.549Z,90.52
2023-03-04T02:52:15.539Z,90.31
2023-03-04T02:53:15.540Z,90.20
2023-03-04T02:54:15.558Z,90.20
2023-03-04T02:55:15.505Z,90.10
2023-03-04T02:56:15.497Z,90.10
2023-03-04T02:57:15.478Z,90.20
2023-03-04T02:58:15.479Z,90.10
2023-03-04T02:59:15.488Z,90.00
2023-03-04T03:00:15.458Z,89.89
2023-03-04T03:01:15.439Z,89.69
2023-03-04T03:02:15.466Z,89.58
2023-03-04T03:03:15.417Z,89.48
2023-03-04T03:04:15.629Z,89.48
2023-03-04T03:05:15.398Z,89.48
2023-03-04T03:06:15.399Z,89.58
2023-03-04T03:07:15.391Z,89.48
2023-03-04T03:08:15.422Z,89.48
2023-03-04T03:09:15.358Z,89.37
2023-03-04T03:10:15.359Z,89.27
2023-03-04T03:11:15.341Z,89.27
2023-03-04T03:12:15.321Z,89.37
2023-03-04T03:13:15.320Z,89.37
2023-03-04T03:14:15.310Z,89.37
2023-03-04T03:15:15.300Z,89.37
2023-03-04T03:16:15.329Z,89.12
2023-03-04T03:17:15.298Z,89.06
2023-03-04T03:18:15.270Z,89.12
2023-03-04T03:19:15.250Z,89.17
2023-03-04T03:20:15.257Z,89.17
2023-03-04T03:21:15.229Z,89.12
2023-03-04T03:22:15.220Z,89.27
2023-03-04T03:23:15.205Z,89.23
2023-03-04T03:24:15.208Z,89.12
2023-03-04T03:25:15.198Z,89.12
2023-03-04T03:26:15.188Z,89.02
2023-03-04T03:27:15.161Z,89.02
2023-03-04T03:28:15.158Z,88.92
2023-03-04T03:29:15.149Z,88.92
2023-03-04T03:30:15.146Z,88.81
2023-03-04T03:31:15.125Z,88.71
2023-03-04T03:32:15.122Z,88.71
2023-03-04T03:33:15.091Z,88.60
2023-03-04T03:34:15.089Z,88.71
2023-03-04T03:35:15.077Z,88.71
2023-03-04T03:36:15.145Z,88.71
2023-03-04T03:37:15.061Z,88.81
2023-03-04T03:38:15.152Z,88.81
2023-03-04T03:39:15.026Z,88.71
2023-03-04T03:40:15.038Z,88.71
2023-03-04T03:41:15.007Z,88.71
2023-03-04T03:42:15.110Z,88.71
2023-03-04T03:43:14.990Z,88.71
2023-03-04T03:44:14.985Z,88.60
2023-03-04T03:45:14.966Z,88.60
2023-03-04T03:46:14.961Z,88.60
2023-03-04T03:47:14.941Z,88.71
2023-03-04T03:48:14.938Z,88.60
2023-03-04T03:49:14.927Z,88.50
2023-03-04T03:50:14.933Z,88.50
2023-03-04T03:51:14.901Z,88.60
2023-03-04T03:52:14.901Z,88.71
2023-03-04T03:53:14.879Z,88.71
2023-03-04T03:54:14.888Z,88.71
2023-03-04T03:55:14.873Z,88.60
2023-03-04T03:56:14.929Z,88.60
2023-03-04T03:57:14.831Z,88.60
2023-03-04T03:58:14.829Z,88.60
2023-03-04T03:59:14.837Z,88.60
2023-03-04T04:00:14.850Z,88.60
2023-03-04T04:01:14.803Z,88.71
2023-03-04T04:02:14.880Z,88.71
2023-03-04T04:03:14.770Z,88.60
2023-03-04T04:04:14.781Z,88.60
2023-03-04T04:05:14.753Z,88.60
2023-03-04T04:06:14.741Z,88.60
2023-03-04T04:07:14.751Z,88.71
2023-03-04T04:08:14.724Z,88.71
2023-03-04T04:09:14.710Z,88.60
2023-03-04T04:10:14.722Z,88.71
2023-03-04T04:11:14.688Z,88.81
2023-03-04T04:12:14.692Z,88.81
2023-03-04T04:13:14.663Z,88.81
2023-03-04T04:14:14.682Z,88.81
2023-03-04T04:15:14.652Z,88.60
2023-03-04T04:16:14.639Z,88.50
2023-03-04T04:17:14.626Z,88.50
2023-03-04T04:18:14.606Z,88.60
2023-03-04T04:19:14.593Z,88.60
2023-03-04T04:20:14.617Z,88.71
2023-03-04T04:21:14.582Z,88.71
2023-03-04T04:22:14.565Z,88.81
2023-03-04T04:23:14.548Z,88.81
2023-03-04T04:24:14.531Z,88.81
2023-03-04T04:25:14.553Z,88.81
2023-03-04T04:26:14.514Z,88.71
2023-03-04T04:27:14.503Z,88.71
2023-03-04T04:28:14.488Z,88.71
2023-03-04T04:29:14.491Z,88.60
2023-03-04T04:30:14.481Z,88.60
2023-03-04T04:31:14.525Z,88.71
2023-03-04T04:32:14.521Z,88.81
2023-03-04T04:33:14.439Z,88.92
2023-03-04T04:34:14.416Z,88.81
2023-03-04T04:35:14.428Z,88.81
2023-03-04T04:36:14.439Z,88.92
2023-03-04T04:37:14.489Z,88.92
2023-03-04T04:38:14.410Z,88.81
2023-03-04T04:39:14.376Z,88.81
2023-03-04T04:40:14.452Z,88.81
2023-03-04T04:41:14.357Z,88.81
2023-03-04T04:42:14.382Z,88.81
2023-03-04T04:43:14.350Z,88.92
2023-03-04T04:44:14.328Z,88.81
2023-03-04T04:45:14.340Z,88.71
2023-03-04T04:46:14.388Z,88.81
2023-03-04T04:47:14.295Z,88.71
2023-03-04T04:48:14.269Z,88.71
2023-03-04T04:49:14.278Z,88.71
2023-03-04T04:50:14.259Z,88.71
2023-03-04T04:51:14.239Z,88.71
2023-03-04T04:52:14.405Z,88.71
2023-03-04T04:53:14.225Z,88.71
2023-03-04T04:54:14.208Z,88.71
2023-03-04T04:55:14.198Z,88.71
2023-03-04T04:56:14.220Z,88.67
2023-03-04T04:57:14.184Z,88.46
2023-03-04T04:58:14.151Z,88.46
2023-03-04T04:59:14.155Z,88.46
2023-03-04T05:00:14.270Z,88.56
2023-03-04T05:01:14.244Z,88.56
2023-03-04T05:02:14.124Z,88.71
2023-03-04T05:03:14.146Z,88.67
2023-03-04T05:04:14.105Z,88.67
2023-03-04T05:05:14.110Z,88.67
2023-03-04T05:06:14.073Z,88.56
2023-03-04T05:07:14.064Z,88.46
2023-03-04T05:08:14.126Z,88.46
2023-03-04T05:09:14.055Z,88.46
2023-03-04T05:10:14.056Z,88.46
2023-03-04T05:11:14.025Z,88.35
2023-03-04T05:12:14.014Z,88.35
2023-03-04T05:13:14.006Z,88.46
2023-03-04T05:14:13.995Z,88.46
2023-03-04T05:15:13.997Z,88.35
2023-03-04T05:16:14.024Z,88.35
2023-03-04T05:17:13.976Z,88.25
2023-03-04T05:18:13.944Z,88.35
2023-03-04T05:19:13.941Z,88.46
2023-03-04T05:20:13.975Z,88.56
2023-03-04T05:21:13.909Z,88.56
2023-03-04T05:22:13.899Z,88.56
2023-03-04T05:23:13.894Z,88.56
2023-03-04T05:24:13.910Z,88.67
2023-03-04T05:25:13.880Z,88.77
2023-03-04T05:26:13.929Z,88.77
2023-03-04T05:27:13.858Z,88.77
2023-03-04T05:28:13.840Z,88.67
2023-03-04T05:29:13.832Z,88.77
2023-03-04T05:30:13.873Z,88.77
2023-03-04T05:31:13.816Z,88.77
2023-03-04T05:32:13.838Z,88.67
2023-03-04T05:33:13.779Z,88.67
2023-03-04T05:34:13.779Z,88.67
2023-03-04T05:35:13.771Z,88.67
2023-03-04T05:36:13.749Z,88.67
2023-03-04T05:37:13.737Z,88.56
2023-03-04T05:38:13.720Z,88.67
2023-03-04T05:39:13.711Z,88.67
2023-03-04T05:40:13.752Z,88.67
2023-03-04T05:41:13.704Z,88.56
2023-03-04T05:42:13.706Z,88.56
2023-03-04T05:43:13.677Z,88.67
2023-03-04T05:44:13.664Z,88.67
2023-03-04T05:45:13.651Z,88.67
2023-03-04T05:46:13.681Z,88.67
2023-03-04T05:47:13.630Z,88.87
2023-03-04T05:48:13.623Z,88.77
2023-03-04T05:49:13.615Z,88.77
2023-03-04T05:50:13.604Z,88.67
2023-03-04T05:51:13.593Z,88.67
2023-03-04T05:52:13.651Z,88.56
2023-03-04T05:53:13.568Z,88.67
2023-03-04T05:54:13.545Z,88.67
2023-03-04T05:55:13.542Z,88.67
2023-03-04T05:56:13.542Z,88.67
2023-03-04T05:57:13.512Z,88.56
2023-03-04T05:58:13.514Z,88.56
2023-03-04T05:59:13.501Z,88.46
2023-03-04T06:00:13.536Z,88.42
2023-03-04T06:01:13.483Z,88.31
2023-03-04T06:02:13.474Z,88.31
2023-03-04T06:03:13.484Z,88.31
2023-03-04T06:04:13.560Z,88.31
2023-03-04T06:05:13.434Z,88.21
2023-03-04T06:06:13.761Z,88.21
2023-03-04T06:07:13.413Z,88.21
2023-03-04T06:08:13.423Z,88.10
2023-03-04T06:09:13.383Z,88.10
2023-03-04T06:10:13.377Z,88.10
2023-03-04T06:11:13.403Z,88.00
2023-03-04T06:12:13.418Z,88.00
2023-03-04T06:13:13.339Z,88.10
2023-03-04T06:14:13.394Z,88.21
2023-03-04T06:15:13.316Z,88.31
2023-03-04T06:16:13.333Z,88.31
2023-03-04T06:17:13.294Z,88.31
2023-03-04T06:18:13.286Z,88.42
2023-03-04T06:19:13.294Z,88.31
2023-03-04T06:20:14.023Z,88.21
2023-03-04T06:21:13.256Z,88.10
2023-03-04T06:22:13.265Z,88.10
2023-03-04T06:23:13.351Z,88.21
2023-03-04T06:24:13.246Z,88.31
2023-03-04T06:25:13.215Z,88.21
2023-03-04T06:26:13.217Z,88.10
2023-03-04T06:27:13.184Z,88.10
2023-03-04T06:28:13.189Z,88.10
2023-03-04T06:29:13.166Z,88.21
2023-03-04T06:30:13.178Z,88.21
2023-03-04T06:31:13.212Z,88.10
2023-03-04T06:32:13.212Z,88.21
2023-03-04T06:33:13.141Z,88.10
2023-03-04T06:34:13.125Z,88.00
2023-03-04T06:35:13.105Z,87.90
2023-03-04T06:36:13.107Z,87.90
2023-03-04T06:37:13.072Z,87.79
2023-03-04T06:38:13.063Z,87.90
2023-03-04T06:39:13.053Z,87.79
2023-03-04T06:40:13.083Z,87.90
2023-03-04T06:41:13.043Z,88.00
2023-03-04T06:42:13.019Z,87.96
2023-03-04T06:43:13.006Z,87.86
2023-03-04T06:44:13.076Z,87.76
2023-03-04T06:45:12.993Z,87.76
2023-03-04T06:46:13.131Z,87.65
2023-03-04T06:47:12.966Z,87.55
2023-03-04T06:48:12.945Z,87.65
2023-03-04T06:49:12.945Z,87.65
2023-03-04T06:50:12.975Z,87.55
2023-03-04T06:51:12.925Z,87.45
2023-03-04T06:52:12.995Z,87.45
2023-03-04T06:53:12.904Z,87.45
2023-03-04T06:54:12.905Z,87.45
2023-03-04T06:55:12.886Z,87.45
2023-03-04T06:56:12.925Z,87.55
2023-03-04T06:57:12.986Z,87.45
2023-03-04T06:58:12.847Z,87.45
2023-03-04T06:59:12.842Z,87.45
2023-03-04T07:00:12.904Z,87.45
2023-03-04T07:01:13.243Z,87.55
2023-03-04T07:02:12.829Z,87.55
2023-03-04T07:03:12.789Z,87.61
2023-03-04T07:04:12.832Z,87.61
2023-03-04T07:05:12.767Z,87.55
2023-03-04T07:06:12.765Z,87.45
2023-03-04T07:07:12.762Z,87.40
2023-03-04T07:08:12.727Z,87.40
2023-03-04T07:09:13.676Z,87.30
2023-03-04T07:10:12.720Z,87.30
2023-03-04T07:11:12.710Z,87.09
2023-03-04T07:12:12.697Z,87.09
2023-03-04T07:13:12.676Z,86.88
2023-03-04T07:14:12.740Z,86.78
2023-03-04T07:15:12.663Z,86.88
2023-03-04T07:16:12.680Z,86.88
2023-03-04T07:17:12.845Z,86.78
2023-03-04T07:18:12.643Z,86.57
2023-03-04T07:19:12.616Z,86.57
2023-03-04T07:20:12.623Z,86.68
2023-03-04T07:21:12.597Z,86.78
2023-03-04T07:22:12.580Z,86.88
2023-03-04T07:23:12.569Z,86.78
2023-03-04T07:24:12.586Z,86.78
2023-03-04T07:25:12.712Z,86.68
2023-03-04T07:26:13.588Z,86.78
2023-03-04T07:27:12.549Z,86.78
2023-03-04T07:28:12.538Z,86.68
2023-03-04T07:29:12.507Z,86.85
2023-03-04T07:30:12.491Z,86.85
2023-03-04T07:31:12.835Z,86.74
2023-03-04T07:32:12.643Z,86.74
2023-03-04T07:33:12.464Z,86.74
2023-03-04T07:34:12.449Z,86.64
2023-03-04T07:35:12.466Z,86.22
2023-03-04T07:36:12.467Z,85.87
2023-03-04T07:37:12.440Z,85.46
2023-03-04T07:38:12.409Z,85.35
2023-03-04T07:39:12.401Z,85.35
2023-03-04T07:40:12.400Z,85.25
2023-03-04T07:41:12.427Z,85.35
2023-03-04T07:42:12.358Z,85.25
2023-03-04T07:43:12.349Z,85.35
2023-03-04T07:44:13.393Z,85.35
2023-03-04T07:45:12.358Z,85.56
2023-03-04T07:46:12.542Z,85.77
2023-03-04T07:47:12.312Z,85.77
2023-03-04T07:48:12.290Z,85.87
2023-03-04T07:49:12.290Z,85.87
2023-03-04T07:50:12.272Z,85.87
2023-03-04T07:51:12.273Z,85.97
2023-03-04T07:52:12.260Z,85.97
2023-03-04T07:53:12.244Z,85.97
2023-03-04T07:54:12.231Z,86.08
2023-03-04T07:55:12.223Z,86.08
2023-03-04T07:56:12.323Z,86.18
2023-03-04T07:57:12.210Z,86.29
2023-03-04T07:58:12.205Z,86.39
2023-03-04T07:59:12.184Z,86.29
2023-03-04T08:00:12.169Z,86.08
2023-03-04T08:01:12.165Z,86.08
2023-03-04T08:02:12.213Z,86.08
2023-03-04T08:03:12.133Z,86.08
2023-03-04T08:04:12.188Z,85.97
2023-03-04T08:05:12.125Z,86.18
2023-03-04T08:06:12.123Z,86.18
2023-03-04T08:07:12.108Z,86.29
2023-03-04T08:08:12.089Z,86.18
2023-03-04T08:09:12.065Z,85.87
2023-03-04T08:10:12.054Z,85.77
2023-03-04T08:11:12.060Z,85.35
2023-03-04T08:12:12.083Z,85.11
2023-03-04T08:13:12.028Z,84.80
2023-03-04T08:14:12.065Z,84.38
2023-03-04T08:15:12.004Z,83.86
2023-03-04T08:16:12.104Z,83.97
2023-03-04T08:17:11.996Z,83.45
2023-03-04T08:18:12.008Z,83.76
2023-03-04T08:19:12.492Z,83.65
2023-03-04T08:20:11.973Z,83.45
2023-03-04T08:21:11.946Z,83.45
2023-03-04T08:22:11.963Z,83.65
2023-03-04T08:23:11.914Z,83.62
2023-03-04T08:24:11.929Z,83.20
2023-03-04T08:25:11.913Z,83.10
2023-03-04T08:26:11.985Z,83.10
2023-03-04T08:27:11.872Z,83.00
2023-03-04T08:28:11.861Z,82.79
2023-03-04T08:29:11.857Z,82.89
2023-03-04T08:30:11.916Z,82.89
2023-03-04T08:31:11.958Z,82.89
2023-03-04T08:32:11.899Z,83.10
2023-03-04T08:33:11.809Z,82.89
2023-03-04T08:34:11.827Z,82.58
2023-03-04T08:35:11.809Z,82.68
2023-03-04T08:36:11.805Z,82.89
2023-03-04T08:37:11.775Z,82.68
2023-03-04T08:38:11.780Z,82.89
2023-03-04T08:39:11.747Z,82.79
2023-03-04T08:40:11.725Z,82.48
2023-03-04T08:41:11.723Z,82.37
2023-03-04T08:42:11.800Z,82.48
2023-03-04T08:43:11.705Z,82.65
2023-03-04T08:44:11.741Z,82.34
2023-03-04T08:45:11.677Z,82.23
2023-03-04T08:46:11.726Z,82.44
2023-03-04T08:47:11.660Z,82.34
2023-03-04T08:48:11.645Z,82.65
2023-03-04T08:49:11.636Z,82.54
2023-03-04T08:50:11.623Z,82.54
2023-03-04T08:51:11.620Z,82.34
2023-03-04T08:52:11.664Z,82.54
2023-03-04T08:53:11.597Z,82.44
2023-03-04T08:54:11.596Z,82.65
2023-03-04T08:55:11.566Z,82.34
2023-03-04T08:56:11.582Z,82.03
2023-03-04T08:57:11.556Z,82.23
2023-03-04T08:58:11.565Z,82.13
2023-03-04T08:59:11.532Z,82.23
2023-03-04T09:00:11.508Z,82.23
2023-03-04T09:01:11.507Z,82.03
2023-03-04T09:02:11.739Z,82.23
2023-03-04T09:03:11.641Z,81.92
2023-03-04T09:04:11.480Z,82.23
2023-03-04T09:05:11.462Z,82.54
2023-03-04T09:06:11.449Z,82.75
2023-03-04T09:07:11.441Z,82.95
2023-03-04T09:08:11.463Z,83.16
2023-03-04T09:09:11.431Z,83.37
2023-03-04T09:10:11.399Z,83.26
2023-03-04T09:11:11.453Z,83.16
2023-03-04T09:12:11.411Z,83.26
2023-03-04T09:13:11.372Z,82.86
2023-03-04T09:14:11.370Z,83.23
2023-03-04T09:15:12.139Z,82.81
2023-03-04T09:16:11.412Z,82.19
2023-03-04T09:17:11.338Z,82.29
2023-03-04T09:18:12.038Z,82.09
2023-03-04T09:19:11.309Z,82.09
2023-03-04T09:20:11.303Z,81.99
2023-03-04T09:21:11.307Z,81.99
2023-03-04T09:22:11.360Z,81.99
2023-03-04T09:23:11.289Z,81.99
2023-03-04T09:24:11.261Z,81.88
2023-03-04T09:25:13.104Z,81.99
2023-03-04T09:26:11.452Z,81.88
2023-03-04T09:27:11.254Z,81.99
2023-03-04T09:28:11.262Z,81.99
2023-03-04T09:29:11.204Z,82.29
2023-03-04T09:30:11.185Z,82.50
2023-03-04T09:31:11.207Z,82.40
2023-03-04T09:32:11.261Z,82.60
2023-03-04T09:33:11.164Z,82.81
2023-03-04T09:34:11.203Z,83.02
2023-03-04T09:35:11.152Z,83.12
2023-03-04T09:36:11.219Z,83.12
2023-03-04T09:37:11.127Z,82.98
2023-03-04T09:38:11.143Z,82.67
2023-03-04T09:39:11.093Z,82.57
2023-03-04T09:40:11.191Z,82.57
2023-03-04T09:41:11.174Z,82.36
2023-03-04T09:42:11.144Z,82.67
2023-03-04T09:43:11.091Z,82.32
2023-03-04T09:44:11.066Z,82.53
2023-03-04T09:45:11.034Z,82.32
2023-03-04T09:46:11.121Z,81.81
2023-03-04T09:47:11.004Z,81.39
2023-03-04T09:48:11.009Z,81.60
2023-03-04T09:49:10.985Z,81.70
2023-03-04T09:50:10.977Z,81.70
2023-03-04T09:51:10.970Z,81.81
2023-03-04T09:52:10.955Z,81.77
2023-03-04T09:53:10.952Z,81.87
2023-03-04T09:54:10.986Z,81.87
2023-03-04T09:55:10.905Z,81.77
2023-03-04T09:56:10.925Z,81.98
2023-03-04T09:57:10.896Z,81.46
2023-03-04T09:58:10.914Z,81.46
2023-03-04T09:59:10.866Z,81.67
2023-03-04T10:00:11.823Z,81.98
2023-03-04T10:01:10.845Z,81.87
2023-03-04T10:02:10.884Z,82.18
2023-03-04T10:03:10.883Z,82.15
2023-03-04T10:04:10.845Z,82.25
2023-03-04T10:05:10.798Z,81.73
2023-03-04T10:06:10.815Z,81.70
2023-03-04T10:07:10.798Z,81.07
2023-03-04T10:08:10.920Z,81.18
2023-03-04T10:09:10.747Z,80.52
2023-03-04T10:10:10.768Z,80.42
2023-03-04T10:11:11.143Z,80.38
2023-03-04T10:12:10.942Z,79.31
2023-03-04T10:13:11.914Z,78.80
2023-03-04T10:14:10.718Z,78.45
2023-03-04T10:15:10.697Z,78.24
2023-03-04T10:16:10.765Z,77.52
2023-03-04T10:17:10.684Z,77.22
2023-03-04T10:18:10.658Z,77.45
2023-03-04T10:19:10.652Z,76.84
2023-03-04T10:20:10.678Z,76.53
2023-03-04T10:21:10.650Z,77.08
2023-03-04T10:22:10.652Z,77.18
2023-03-04T10:23:10.620Z,77.28
2023-03-04T10:24:10.728Z,77.08
2023-03-04T10:25:10.638Z,77.80
2023-03-04T10:26:10.648Z,77.49
2023-03-04T10:27:10.579Z,77.49
2023-03-04T10:28:10.548Z,77.59
2023-03-04T10:29:10.536Z,77.80
2023-03-04T10:30:10.562Z,77.70
2023-03-04T10:31:10.579Z,77.39
2023-03-04T10:32:10.563Z,77.59
2023-03-04T10:33:10.491Z,77.94
2023-03-04T10:34:10.485Z,77.53
2023-03-04T10:35:10.473Z,77.63
2023-03-04T10:36:10.472Z,78.05
2023-03-04T10:37:10.451Z,77.28
2023-03-04T10:38:10.575Z,77.11
2023-03-04T10:39:10.420Z,77.42
2023-03-04T10:40:10.413Z,77.70
2023-03-04T10:41:10.399Z,77.59
2023-03-04T10:42:11.430Z,77.84
2023-03-04T10:43:10.419Z,77.42
2023-03-04T10:44:10.389Z,77.63
2023-03-04T10:45:10.359Z,77.94
2023-03-04T10:46:10.410Z,77.94
2023-03-04T10:47:10.350Z,77.73
2023-03-04T10:48:10.318Z,77.63
2023-03-04T10:49:10.307Z,77.84
2023-03-04T10:50:10.330Z,78.25
2023-03-04T10:51:10.278Z,78.35
2023-03-04T10:52:10.268Z,77.63
2023-03-04T10:53:10.276Z,77.80
2023-03-04T10:54:10.284Z,78.01
2023-03-04T10:55:10.248Z,77.39
2023-03-04T10:56:10.280Z,77.45
2023-03-04T10:57:10.213Z,77.56
2023-03-04T10:58:10.258Z,77.15
2023-03-04T10:59:10.194Z,77.76
2023-03-04T11:00:10.180Z,77.76
2023-03-04T11:01:10.194Z,77.97
2023-03-04T11:02:10.155Z,78.49
2023-03-04T11:03:10.214Z,78.94
2023-03-04T11:04:10.168Z,79.25
2023-03-04T11:05:10.129Z,79.66
2023-03-04T11:06:10.105Z,79.76
2023-03-04T11:07:10.106Z,80.38
2023-03-04T11:08:10.138Z,80.38
2023-03-04T11:09:10.085Z,80.38
2023-03-04T11:10:10.092Z,80.69
2023-03-04T11:11:10.075Z,80.58
2023-03-04T11:12:10.064Z,80.48
2023-03-04T11:13:10.047Z,80.38
2023-03-04T11:14:10.027Z,80.48
2023-03-04T11:15:10.060Z,80.79
2023-03-04T11:16:10.062Z,81.10
2023-03-04T11:17:10.007Z,80.90
2023-03-04T11:18:10.047Z,81.00
2023-03-04T11:19:09.965Z,80.90
2023-03-04T11:20:10.045Z,80.38
2023-03-04T11:21:09.985Z,80.38
2023-03-04T11:22:09.929Z,80.65
2023-03-04T11:23:09.994Z,79.76
2023-03-04T11:24:25.718Z,80.24
2023-03-04T11:25:10.895Z,80.24
2023-03-04T11:26:09.977Z,80.14
2023-03-04T11:27:09.882Z,79.72
2023-03-04T11:28:11.442Z,79.62
2023-03-04T11:29:09.858Z,79.48
2023-03-04T11:30:09.962Z,79.38
2023-03-04T11:31:09.832Z,79.07
2023-03-04T11:32:10.058Z,79.17
2023-03-04T11:33:09.815Z,79.17
2023-03-04T11:34:11.648Z,79.27
2023-03-04T11:35:09.789Z,79.79
2023-03-04T11:36:09.819Z,80.51
2023-03-04T11:37:09.773Z,81.13
2023-03-04T11:38:09.766Z,81.54
2023-03-04T11:39:09.759Z,82.47
2023-03-04T11:40:09.751Z,81.58
2023-03-04T11:41:09.765Z,81.79
2023-03-04T11:42:09.735Z,81.89
2023-03-04T11:43:09.728Z,82.30
2023-03-04T11:44:09.771Z,82.61
2023-03-04T11:45:26.152Z,82.61
2023-03-04T11:46:10.856Z,82.45
2023-03-04T11:47:09.694Z,82.65
2023-03-04T11:48:09.690Z,82.96
2023-03-04T11:49:09.726Z,83.48
2023-03-04T11:50:09.778Z,83.37
2023-03-04T11:51:11.436Z,83.48
2023-03-04T11:52:09.712Z,83.17
2023-03-04T11:53:09.620Z,84.06
2023-03-04T11:54:09.733Z,83.95
2023-03-04T11:55:09.597Z,82.68
2023-03-04T11:56:09.621Z,81.92
2023-03-04T11:57:11.841Z,81.57
2023-03-04T11:58:09.632Z,81.05
2023-03-04T11:59:09.570Z,81.02
2023-03-04T12:00:09.564Z,79.93
2023-03-04T12:01:09.541Z,79.93
2023-03-04T12:02:09.579Z,79.41
2023-03-04T12:03:11.483Z,79.30
2023-03-04T12:04:09.691Z,79.30
2023-03-04T12:05:09.502Z,79.30
2023-03-04T12:06:09.559Z,79.00
2023-03-04T12:07:09.590Z,78.58
2023-03-04T12:08:09.448Z,78.89
2023-03-04T12:09:09.457Z,79.10
2023-03-04T12:10:09.486Z,79.30
2023-03-04T12:11:09.461Z,78.89
2023-03-04T12:12:09.446Z,79.00
2023-03-04T12:13:09.420Z,78.48
2023-03-04T12:14:09.454Z,78.28
2023-03-04T12:15:09.385Z,78.17
2023-03-04T12:16:09.462Z,78.21
2023-03-04T12:17:09.370Z,78.31
2023-03-04T12:18:09.349Z,78.21
2023-03-04T12:19:09.342Z,78.41
2023-03-04T12:20:09.385Z,78.83
2023-03-04T12:21:09.340Z,79.24
2023-03-04T12:22:09.326Z,78.93
2023-03-04T12:23:09.316Z,79.03
2023-03-04T12:24:09.286Z,78.97
2023-03-04T12:25:09.264Z,78.86
2023-03-04T12:26:09.322Z,79.17
2023-03-04T12:27:09.245Z,78.86
2023-03-04T12:28:09.257Z,78.55
2023-03-04T12:29:09.245Z,78.97
2023-03-04T12:30:09.227Z,79.21
2023-03-04T12:31:09.267Z,79.83
2023-03-04T12:32:09.228Z,79.48
2023-03-04T12:33:09.210Z,79.52
2023-03-04T12:34:09.193Z,79.62
2023-03-04T12:35:09.164Z,79.62
2023-03-04T12:36:09.154Z,79.69
2023-03-04T12:37:09.153Z,80.00
2023-03-04T12:38:09.129Z,79.69
2023-03-04T12:39:09.126Z,79.69
2023-03-04T12:40:09.095Z,79.58
2023-03-04T12:41:09.114Z,79.38
2023-03-04T12:42:09.127Z,79.17
2023-03-04T12:43:09.127Z,79.17
2023-03-04T12:44:09.129Z,79.48
2023-03-04T12:45:09.045Z,79.38
2023-03-04T12:46:09.092Z,79.58
2023-03-04T12:47:09.026Z,79.58
2023-03-04T12:48:09.022Z,79.48
2023-03-04T12:49:09.006Z,79.58
2023-03-04T12:50:09.055Z,79.48
2023-03-04T12:51:08.977Z,79.48
2023-03-04T12:52:09.068Z,79.48